Time;durP1;ratioP1;P1;durP2;ratioP2;P2;SDS_P1;SDS_P2;PMS_P1;PMS_P2;Temp;Humidity;BMP_temperature;BMP_pressure;BME280_temperature;BME280_humidity;BME280_pressure;Samples;Min_cycle;Max_cycle;Signal;HPM_P1;HPM_P2
2022/06/14 07:00:30;;;;;;;0.00;0.00;;;;;;;30.73;100.00;100721.09;2612004;54;20494;-63
2022/06/14 08:08:03;;;;;;;4.07;2.42;;;;;;;27.85;100.00;100732.91;3014048;36;42212;-62
2022/06/14 08:10:40;;;;;;;2.63;1.67;;;;;;;28.00;100.00;100738.06;3509697;36;20227;-63
2022/06/14 08:13:14;;;;;;;1.35;1.25;;;;;;;28.21;100.00;100743.22;3502292;36;20174;-63
2022/06/14 08:15:52;;;;;;;0.95;0.82;;;;;;;27.91;100.00;100745.44;3524064;36;20341;-63
2022/06/14 08:18:29;;;;;;;2.40;1.83;;;;;;;28.12;100.00;100747.13;3503748;36;20178;-63
2022/06/14 08:21:03;;;;;;;3.08;2.55;;;;;;;28.22;100.00;100746.69;3502858;36;20174;-63
2022/06/14 08:23:41;;;;;;;0.28;0.28;;;;;;;28.11;100.00;100752.66;3508202;36;20624;-63
2022/06/14 08:26:18;;;;;;;2.38;1.77;;;;;;;28.18;100.00;100746.28;2690208;36;20184;-64
2022/06/14 08:28:53;;;;;;;1.60;1.58;;;;;;;28.14;100.00;100760.25;2653727;36;20185;-64
2022/06/14 08:31:31;;;;;;;3.17;2.75;;;;;;;27.77;100.00;100749.09;2671721;36;20219;-65
2022/06/14 08:34:11;;;;;;;8.00;4.65;;;;;;;27.59;100.00;100751.53;2661962;36;20193;-64
2022/06/14 08:36:49;;;;;;;2.78;2.67;;;;;;;27.80;100.00;100750.56;2653489;36;20185;-64
2022/06/14 08:39:28;;;;;;;0.52;0.52;;;;;;;27.92;100.00;100747.06;2671982;36;20610;-64
2022/06/14 08:42:10;;;;;;;0.00;0.00;;;;;;;28.24;100.00;100753.50;2780795;36;20212;-65
2022/06/14 08:44:48;;;;;;;1.05;0.95;;;;;;;28.58;100.00;100755.09;2617563;47;20142;-65
2022/06/14 08:47:42;;;;;;;2.40;2.10;;;;;;;28.19;100.00;100758.63;2617304;54;20145;-65
2022/06/14 08:50:28;;;;;;;0.25;0.22;;;;;;;28.56;100.00;100754.47;2663462;36;20165;-65
2022/06/14 08:53:25;;;;;;;2.83;2.25;;;;;;;29.11;100.00;100761.13;2617635;54;20669;-65
2022/06/14 08:56:17;;;;;;;0.25;0.10;;;;;;;29.31;100.00;100749.56;2649480;36;20165;-65
2022/06/14 08:59:14;;;;;;;0.25;0.25;;;;;;;29.72;96.65;100749.94;2617055;54;20148;-65
2022/06/14 09:02:04;;;;;;;0.65;0.63;;;;;;;29.79;89.37;100753.41;2617278;54;20148;-65
2022/06/14 09:05:07;;;;;;;1.58;1.35;;;;;;;29.08;93.23;100755.41;2617453;54;20141;-65
2022/06/14 09:08:13;;;;;;;1.85;1.30;;;;;;;29.24;97.63;100763.75;2617172;54;20192;-65
2022/06/14 09:11:01;;;;;;;4.05;3.67;;;;;;;29.03;89.45;100755.19;2617740;54;20153;-64
2022/06/14 09:14:08;;;;;;;2.10;1.52;;;;;;;29.22;92.90;100756.97;2617454;54;20134;-64
2022/06/14 09:17:00;;;;;;;1.77;1.55;;;;;;;29.20;94.10;100759.88;2617553;39;20622;-65
2022/06/14 09:19:50;;;;;;;1.75;1.35;;;;;;;29.15;90.14;100756.19;2617483;54;20145;-65
2022/06/14 09:22:40;;;;;;;0.63;0.63;;;;;;;29.57;88.13;100747.56;2617271;54;20166;-64
2022/06/14 09:25:50;;;;;;;2.83;2.60;;;;;;;29.32;89.00;100751.22;2617525;54;20269;-65
2022/06/14 09:28:44;;;;;;;5.32;3.72;;;;;;;29.32;86.57;100767.25;2617447;54;20822;-65
2022/06/14 09:31:32;;;;;;;1.25;1.15;;;;;;;29.38;82.27;100766.38;2617579;54;20157;-65
2022/06/14 09:34:28;;;;;;;3.17;2.75;;;;;;;29.60;73.37;100762.38;2617664;54;20237;-64
2022/06/14 09:37:17;;;;;;;4.60;1.95;;;;;;;29.86;73.76;100756.00;2617478;54;20149;-64
2022/06/14 09:40:21;;;;;;;2.58;2.38;;;;;;;29.48;71.52;100750.72;2617397;54;20142;-65
2022/06/14 09:43:15;;;;;;;5.10;2.33;;;;;;;29.86;76.00;100759.53;2618090;54;20650;-65
2022/06/14 09:46:01;;;;;;;4.28;3.50;;;;;;;29.68;78.03;100749.56;2618047;54;20145;-65
2022/06/14 09:49:04;;;;;;;2.40;1.88;;;;;;;29.63;72.58;100761.94;2617292;54;20150;-65
2022/06/14 09:51:58;;;;;;;1.73;1.63;;;;;;;29.88;70.90;100748.63;2617110;54;20148;-64
2022/06/14 09:55:08;;;;;;;2.28;1.33;;;;;;;30.10;69.12;100758.75;2617695;39;20535;-65
2022/06/14 09:58:22;;;;;;;3.38;1.70;;;;;;;29.97;74.41;100736.63;2617142;54;20148;-65
2022/06/14 10:01:00;;;;;;;1.75;1.65;;;;;;;30.07;73.51;100745.81;2617471;39;20223;-65
2022/06/14 10:04:03;;;;;;;1.88;1.73;;;;;;;29.88;69.09;100728.06;2617229;54;20149;-64
2022/06/14 10:06:48;;;;;;;2.72;1.70;;;;;;;29.78;70.27;100754.44;2617127;54;20341;-65
2022/06/14 10:09:35;;;;;;;4.53;2.75;;;;;;;29.59;70.47;100747.34;2616358;54;20253;-64
2022/06/14 10:12:24;;;;;;;2.08;1.88;;;;;;;29.57;72.08;100749.44;2616899;54;20154;-65
2022/06/14 10:15:00;;;;;;;2.65;1.83;;;;;;;29.72;69.75;100739.25;2616794;54;20230;-64
2022/06/14 10:17:49;;;;;;;2.15;2.05;;;;;;;30.15;69.84;100718.75;2616837;47;20160;-65
2022/06/14 10:20:47;;;;;;;2.60;2.22;;;;;;;30.23;68.80;100730.22;2616682;54;20149;-65
2022/06/14 10:23:40;;;;;;;2.55;1.92;;;;;;;30.53;68.38;100732.00;2616615;54;20157;-65
2022/06/14 10:29:29;;;;;;;2.15;1.30;;;;;;;30.21;62.86;100717.88;2617169;39;20561;-64
2022/06/14 10:32:26;;;;;;;2.72;2.53;;;;;;;30.26;65.28;100719.06;2616817;54;20153;-64
2022/06/14 10:35:02;;;;;;;3.13;2.05;;;;;;;30.08;66.08;100730.56;2616788;54;20160;-65
2022/06/14 10:37:55;;;;;;;2.00;1.83;;;;;;;30.30;62.00;100725.63;2616594;54;20176;-65
2022/06/14 10:40:48;;;;;;;4.78;2.60;;;;;;;30.24;66.62;100716.63;2616633;54;20153;-65
2022/06/14 10:43:29;;;;;;;1.42;1.13;;;;;;;30.19;67.37;100717.28;2616775;54;20160;-65
2022/06/14 10:46:10;;;;;;;1.98;1.88;;;;;;;30.44;70.37;100703.91;2662328;36;20220;-65
2022/06/14 10:49:03;;;;;;;2.55;2.35;;;;;;;30.55;73.78;100715.72;2662088;36;20236;-64
2022/06/14 10:51:43;;;;;;;2.33;1.90;;;;;;;30.33;75.67;100715.31;2616486;54;20161;-64
2022/06/14 10:54:24;;;;;;;2.63;2.40;;;;;;;30.18;72.93;100701.44;2616515;54;20153;-64
2022/06/14 10:57:11;;;;;;;1.83;1.73;;;;;;;30.27;72.32;100693.94;2616625;54;20581;-65
2022/06/14 11:00:11;;;;;;;1.90;1.80;;;;;;;30.30;65.44;100685.47;2616541;54;20149;-65
2022/06/14 11:03:00;;;;;;;2.55;1.92;;;;;;;30.59;63.79;100687.44;2616653;54;20153;-65
2022/06/14 11:05:40;;;;;;;0.47;0.47;;;;;;;30.69;66.59;100685.09;2617260;31;20612;-64
2022/06/14 11:08:30;;;;;;;5.25;3.53;;;;;;;30.69;65.90;100682.41;2615882;54;20280;-65
2022/06/14 11:11:20;;;;;;;6.75;4.18;;;;;;;30.78;64.61;100686.41;2615778;54;20160;-65
2022/06/14 11:14:01;;;;;;;2.05;1.85;;;;;;;30.62;64.85;100695.03;2616359;54;20154;-65
2022/06/14 11:16:46;;;;;;;2.42;2.33;;;;;;;30.41;66.82;100684.75;2615109;50;20150;-64
2022/06/14 11:19:36;;;;;;;7.03;1.83;;;;;;;30.85;64.38;100691.69;2615239;54;20153;-65
2022/06/14 11:22:32;;;;;;;3.35;2.42;;;;;;;30.57;63.55;100693.03;2660514;36;20216;-65
2022/06/14 11:25:11;;;;;;;2.58;2.05;;;;;;;30.15;57.90;100664.41;2614704;54;20153;-65
2022/06/14 11:27:53;;;;;;;2.63;1.98;;;;;;;30.39;59.35;100668.06;2615396;39;20566;-64
2022/06/14 11:30:34;;;;;;;0.70;0.70;;;;;;;30.82;55.00;100671.50;2615632;47;20624;-64
2022/06/14 11:33:13;;;;;;;1.05;1.05;;;;;;;30.78;53.70;100675.69;2615912;54;20161;-64
2022/06/14 11:36:04;;;;;;;4.20;2.22;;;;;;;30.57;58.41;100641.34;2616064;54;20152;-64
2022/06/14 11:38:58;;;;;;;1.27;0.95;;;;;;;30.82;58.57;100668.00;2616079;47;20177;-64
2022/06/14 11:41:34;;;;;;;1.80;1.10;;;;;;;30.78;53.55;100658.78;2616413;54;20157;-65
2022/06/14 11:44:20;;;;;;;2.70;2.47;;;;;;;31.00;54.21;100655.44;2617859;39;20517;-65
2022/06/14 11:47:02;;;;;;;1.85;1.73;;;;;;;30.80;53.15;100633.41;2616515;54;20154;-65
2022/06/14 11:49:40;;;;;;;1.50;1.40;;;;;;;31.01;54.49;100643.69;2617714;54;20153;-65
2022/06/14 11:52:24;;;;;;;3.42;2.97;;;;;;;31.32;48.61;100631.06;2617112;47;20703;-65
2022/06/14 11:55:09;;;;;;;3.25;2.17;;;;;;;31.08;53.50;100633.69;2616017;54;20168;-65
2022/06/14 11:57:47;;;;;;;3.80;1.38;;;;;;;31.69;54.07;100627.19;2616375;47;20192;-64
2022/06/14 12:00:38;;;;;;;1.73;1.63;;;;;;;32.20;52.68;100626.50;2616100;54;20176;-64
2022/06/14 12:03:44;;;;;;;3.50;3.25;;;;;;;33.17;49.02;100618.53;2661535;36;20243;-64
2022/06/14 12:06:29;;;;;;;0.40;0.40;;;;;;;33.75;47.75;100618.97;2616010;51;20208;-64
2022/06/14 12:09:32;;;;;;;1.30;0.98;;;;;;;34.73;48.22;100610.09;2616055;54;20161;-64
2022/06/14 12:12:15;;;;;;;0.20;0.20;;;;;;;37.22;44.42;100605.13;2615856;54;20161;-64
2022/06/14 12:14:59;;;;;;;4.45;2.15;;;;;;;35.05;48.10;100606.63;2616604;39;20569;-64
2022/06/14 12:17:36;;;;;;;0.45;0.45;;;;;;;37.46;42.87;100606.22;2615899;54;20159;-65
2022/06/14 12:20:10;;;;;;;0.08;0.08;;;;;;;39.24;38.60;100599.00;2616546;39;20597;-65
2022/06/14 12:22:50;;;;;;;0.60;0.57;;;;;;;39.79;36.94;100596.91;2615991;47;20153;-65
2022/06/14 12:28:26;;;;;;;0.65;0.65;;;;;;;36.68;41.29;100603.94;2616159;54;20154;-64
2022/06/14 12:31:05;;;;;;;0.00;0.00;;;;;;;37.80;40.06;100600.22;2616160;47;20158;-64
2022/06/14 12:33:42;;;;;;;2.05;1.30;;;;;;;35.24;45.40;100610.59;2616602;54;20153;-64
2022/06/14 12:36:29;;;;;;;1.92;1.45;;;;;;;37.00;42.74;100605.34;2616383;54;20154;-64
2022/06/14 12:39:05;;;;;;;1.33;0.75;;;;;;;35.37;45.13;100615.56;2615985;54;20146;-65
2022/06/14 12:41:40;;;;;;;0.50;0.50;;;;;;;34.97;47.96;100612.47;2615989;54;20160;-64
2022/06/14 12:44:31;;;;;;;1.00;0.98;;;;;;;35.01;52.98;100600.94;2616206;54;20176;-64
2022/06/14 12:47:04;;;;;;;0.10;0.10;;;;;;;34.73;58.06;100604.69;2616286;54;20146;-64
2022/06/14 12:49:43;;;;;;;0.65;0.65;;;;;;;36.15;57.92;100603.19;2616169;54;20177;-64
2022/06/14 12:52:20;;;;;;;0.28;0.28;;;;;;;37.46;54.10;100595.38;2616794;54;20157;-64
2022/06/14 12:55:00;;;;;;;0.20;0.20;;;;;;;38.83;48.74;100592.25;2616663;54;20150;-64
2022/06/14 12:57:49;;;;;;;0.17;0.17;;;;;;;39.52;47.26;100600.13;2616815;54;20146;-64
2022/06/14 13:00:30;;;;;;;0.68;0.65;;;;;;;38.74;45.58;100600.16;2616799;54;20153;-64
2022/06/14 13:03:07;;;;;;;0.50;0.32;;;;;;;36.35;47.15;100603.25;2616350;39;20553;-64
2022/06/14 13:05:44;;;;;;;0.60;0.60;;;;;;;35.06;53.54;100602.88;2616056;54;20141;-64
2022/06/14 13:08:29;;;;;;;0.30;0.30;;;;;;;34.79;60.02;100602.84;2614594;54;20204;-64
2022/06/14 13:11:10;;;;;;;0.25;0.25;;;;;;;34.10;63.73;100612.47;2616249;54;20156;-64
2022/06/14 13:13:53;;;;;;;0.55;0.52;;;;;;;33.40;70.06;100616.50;2616408;54;20146;-64
2022/06/14 13:16:40;;;;;;;0.35;0.35;;;;;;;32.99;66.30;100602.56;2616572;39;20498;-64
2022/06/14 13:19:20;;;;;;;1.00;1.00;;;;;;;32.00;72.63;100608.06;2616139;54;20145;-64
2022/06/14 13:22:11;;;;;;;1.55;0.28;;;;;;;31.32;75.64;100588.97;2616029;54;20172;-64
2022/06/14 13:24:53;;;;;;;0.03;0.03;;;;;;;31.07;79.21;100591.00;2616655;54;20146;-64
2022/06/14 13:27:35;;;;;;;0.47;0.47;;;;;;;30.74;87.28;100583.41;2616881;54;20145;-64
2022/06/14 13:30:14;;;;;;;0.00;0.00;;;;;;;30.57;91.94;100577.06;2617064;47;20153;-64
2022/06/14 13:33:04;;;;;;;0.00;0.00;;;;;;;30.40;96.10;100570.63;2617364;54;20142;-64
2022/06/14 13:35:55;;;;;;;0.00;0.00;;;;;;;30.05;100.00;100573.91;2617212;54;20141;-64
2022/06/14 13:38:33;;;;;;;0.00;0.00;;;;;;;29.91;99.55;100566.25;2617484;54;20166;-64
2022/06/14 13:41:13;;;;;;;0.00;0.00;;;;;;;29.71;97.32;100572.59;2617477;54;20151;-64
2022/06/14 13:43:53;;;;;;;0.00;0.00;;;;;;;29.56;100.00;100581.97;2617336;47;20149;-65
2022/06/14 13:46:30;;;;;;;0.35;0.35;;;;;;;29.51;100.00;100595.19;2618395;54;20137;-65
2022/06/14 13:49:15;;;;;;;0.40;0.40;;;;;;;29.18;100.00;100595.41;2618430;54;20216;-65
2022/06/14 13:51:54;;;;;;;0.60;0.60;;;;;;;29.03;100.00;100603.72;2617402;50;20142;-65
2022/06/14 13:54:34;;;;;;;1.08;0.75;;;;;;;27.61;100.00;100610.84;2617055;54;20653;-65
2022/06/14 13:57:17;;;;;;;3.33;1.40;;;;;;;24.71;100.00;100639.97;2617404;54;20147;-65
2022/06/14 13:59:51;;;;;;;4.65;4.28;;;;;;;24.07;100.00;100664.53;2617299;54;20141;-64
2022/06/14 14:02:27;;;;;;;3.92;2.97;;;;;;;23.40;100.00;100719.16;2617024;51;20234;-63
2022/06/14 14:05:03;;;;;;;10.30;6.50;;;;;;;21.60;100.00;100745.22;2617289;54;20208;-64
2022/06/14 14:07:41;;;;;;;2.90;2.25;;;;;;;21.86;100.00;100715.06;2617365;54;20197;-64
2022/06/14 14:10:35;;;;;;;3.13;2.70;;;;;;;21.73;100.00;100719.19;2616674;54;20145;-63
2022/06/14 14:13:13;;;;;;;7.38;4.90;;;;;;;20.56;100.00;100755.16;2617170;48;20141;-63
2022/06/14 14:15:49;;;;;;;2.95;2.58;;;;;;;20.36;100.00;100780.03;2617160;54;20151;-63
2022/06/14 14:18:34;;;;;;;2.28;1.98;;;;;;;20.52;100.00;100790.72;2616900;54;20152;-63
2022/06/14 14:21:10;;;;;;;2.88;2.50;;;;;;;20.73;100.00;100796.47;2617326;54;20141;-63
2022/06/14 14:23:58;;;;;;;1.90;1.80;;;;;;;21.15;100.00;100838.78;2617213;51;20141;-64
2022/06/14 14:26:38;;;;;;;0.03;0.03;;;;;;;21.24;100.00;100829.09;2617476;46;20168;-63
2022/06/14 14:29:17;;;;;;;5.20;4.75;;;;;;;21.22;100.00;100816.06;2616782;54;20152;-64
2022/06/14 14:31:54;;;;;;;1.50;1.13;;;;;;;21.19;100.00;100783.88;2616853;47;20674;-64
2022/06/14 14:34:29;;;;;;;0.00;0.00;;;;;;;21.64;100.00;100802.00;2616549;54;20292;-64
2022/06/14 14:37:12;;;;;;;2.28;1.85;;;;;;;21.40;100.00;100822.06;2617374;39;20414;-64
2022/06/14 14:40:02;;;;;;;9.70;6.45;;;;;;;20.67;100.00;100865.63;2617621;39;20569;-64
2022/06/14 14:43:16;;;;;;;10.88;6.40;;;;;;;20.49;100.00;100859.56;2616382;54;20145;-64
2022/06/14 14:45:51;;;;;;;4.53;3.95;;;;;;;20.61;100.00;100855.72;2617139;54;20153;-64
2022/06/14 14:48:31;;;;;;;4.05;3.38;;;;;;;21.31;100.00;100853.84;2617050;54;20148;-64
2022/06/14 14:51:06;;;;;;;1.98;1.77;;;;;;;21.00;100.00;100835.03;2617096;39;20557;-64
2022/06/14 14:53:43;;;;;;;2.50;1.85;;;;;;;20.92;100.00;100824.44;2616359;54;20184;-63
2022/06/14 14:56:20;;;;;;;2.95;2.70;;;;;;;20.92;100.00;100809.44;2617260;54;20141;-64
2022/06/14 14:59:00;;;;;;;6.80;2.75;;;;;;;20.82;100.00;100798.16;2617195;54;20148;-63
2022/06/14 15:07:29;;;;;;;1.98;1.75;;;;;;;21.21;100.00;100771.34;2616217;54;20277;-64
2022/06/14 15:10:07;;;;;;;2.42;1.77;;;;;;;21.23;100.00;100764.09;2616196;54;20153;-63
2022/06/14 15:12:40;;;;;;;0.65;0.50;;;;;;;21.37;100.00;100777.53;2616917;54;20677;-64
2022/06/14 15:15:21;;;;;;;1.08;1.08;;;;;;;21.48;100.00;100789.59;2617102;47;20148;-63
2022/06/14 15:20:48;;;;;;;1.48;1.38;;;;;;;21.82;100.00;100813.31;2617175;54;20188;-63
2022/06/14 15:23:32;;;;;;;4.75;3.20;;;;;;;21.95;100.00;100834.81;2617107;54;20148;-64
2022/06/14 15:26:03;;;;;;;0.88;0.85;;;;;;;22.06;100.00;100853.00;2616979;54;20149;-63
2022/06/14 15:28:46;;;;;;;2.55;0.68;;;;;;;22.17;100.00;100857.16;2617376;39;20561;-64
2022/06/14 15:31:48;;;;;;;0.85;0.55;;;;;;;22.33;100.00;100859.81;2617056;54;20148;-64
2022/06/14 15:34:25;;;;;;;1.98;1.08;;;;;;;22.59;100.00;100865.75;2617749;39;20552;-64
2022/06/14 15:36:58;;;;;;;0.22;0.22;;;;;;;22.87;100.00;100876.84;2618338;54;20133;-64
2022/06/14 15:39:32;;;;;;;1.52;1.42;;;;;;;22.98;100.00;100892.41;2617267;47;20152;-64
2022/06/14 15:42:25;;;;;;;0.00;0.00;;;;;;;23.03;100.00;100913.09;2616939;54;20700;-64
2022/06/14 15:44:56;;;;;;;0.10;0.10;;;;;;;23.21;100.00;100919.00;2616871;54;20146;-64
2022/06/14 15:47:38;;;;;;;0.00;0.00;;;;;;;23.37;100.00;100924.25;2616902;54;20147;-64
2022/06/14 15:50:28;;;;;;;0.45;0.45;;;;;;;23.26;100.00;100937.84;2617340;39;20557;-64
2022/06/14 15:53:03;;;;;;;0.05;0.05;;;;;;;23.44;100.00;100933.19;2616770;54;20137;-64
2022/06/14 15:55:37;;;;;;;0.00;0.00;;;;;;;23.44;100.00;100930.56;2617732;54;20141;-64
2022/06/14 15:58:17;;;;;;;1.15;1.15;;;;;;;23.18;100.00;100937.88;2617331;54;20157;-64
2022/06/14 16:00:57;;;;;;;0.45;0.45;;;;;;;23.27;100.00;100937.66;2616929;54;20142;-64
2022/06/14 16:03:39;;;;;;;0.08;0.08;;;;;;;23.70;100.00;100925.00;2616489;54;20157;-70
2022/06/14 16:06:13;;;;;;;0.15;0.15;;;;;;;23.92;100.00;100934.00;2616511;54;20696;-64
2022/06/14 16:08:55;;;;;;;0.10;0.10;;;;;;;24.27;100.00;100941.50;2616619;54;20152;-64
2022/06/14 16:11:26;;;;;;;0.10;0.10;;;;;;;24.56;100.00;100944.28;2616879;54;20146;-63
2022/06/14 16:14:02;;;;;;;0.00;0.00;;;;;;;24.35;100.00;100948.59;2616785;54;20733;-64
2022/06/14 16:16:35;;;;;;;0.00;0.00;;;;;;;24.14;100.00;100941.22;2616802;54;20153;-64
2022/06/14 16:19:30;;;;;;;0.10;0.10;;;;;;;23.55;100.00;100938.13;2616426;51;20164;-63
2022/06/14 16:22:09;;;;;;;0.15;0.15;;;;;;;23.37;100.00;100947.25;2617283;54;20149;-64
2022/06/14 16:24:44;;;;;;;0.65;0.65;;;;;;;23.47;100.00;100946.09;2617025;54;20137;-64
2022/06/14 16:27:43;;;;;;;0.45;0.25;;;;;;;23.63;100.00;100946.06;2618068;54;20149;-64
2022/06/14 16:30:21;;;;;;;1.08;0.80;;;;;;;23.41;100.00;100935.34;2617547;47;20142;-64
2022/06/14 16:33:03;;;;;;;1.13;1.08;;;;;;;22.97;100.00;100924.31;2616558;39;20238;-67
2022/06/14 16:35:44;;;;;;;1.83;1.75;;;;;;;22.91;100.00;100917.88;2617099;54;20160;-65
2022/06/14 16:38:36;;;;;;;0.30;0.30;;;;;;;23.00;100.00;100908.94;2616915;54;20157;-63
2022/06/14 16:41:18;;;;;;;0.82;0.82;;;;;;;23.09;100.00;100912.41;2616113;54;20146;-65
2022/06/14 16:44:02;;;;;;;0.57;0.57;;;;;;;23.08;100.00;100900.97;2616280;54;20161;-65
2022/06/14 16:46:43;;;;;;;0.82;0.40;;;;;;;23.13;100.00;100901.31;2615866;54;20164;-64
2022/06/14 16:49:26;;;;;;;0.85;0.85;;;;;;;23.15;100.00;100898.50;2616150;54;20583;-63
2022/06/14 16:52:02;;;;;;;0.00;0.00;;;;;;;23.27;100.00;100905.09;2616404;54;20182;-63
2022/06/14 16:54:42;;;;;;;0.10;0.10;;;;;;;23.14;100.00;100902.13;2616203;54;20158;-63
2022/06/14 16:57:20;;;;;;;0.68;0.05;;;;;;;23.47;100.00;100909.00;2616258;39;20632;-63
2022/06/14 17:00:00;;;;;;;1.08;1.08;;;;;;;23.79;100.00;100908.09;2616459;54;20157;-63
2022/06/14 17:03:07;;;;;;;0.15;0.15;;;;;;;23.82;100.00;100904.25;2616496;54;20641;-63
2022/06/14 17:05:39;;;;;;;0.38;0.38;;;;;;;23.61;100.00;100907.50;2616950;54;20203;-63
2022/06/14 17:08:22;;;;;;;1.77;1.67;;;;;;;23.18;100.00;100909.56;2617126;54;20197;-64
2022/06/14 17:10:55;;;;;;;1.48;1.35;;;;;;;23.33;100.00;100909.69;2616975;54;20154;-64
2022/06/14 17:13:36;;;;;;;0.30;0.30;;;;;;;23.25;100.00;100915.84;2617119;54;20149;-64
2022/06/14 17:16:18;;;;;;;0.10;0.10;;;;;;;23.30;100.00;100925.94;2616794;54;20149;-63
2022/06/14 17:18:51;;;;;;;0.93;0.85;;;;;;;23.43;100.00;100925.44;2617359;54;20157;-63
2022/06/14 17:21:27;;;;;;;2.08;1.20;;;;;;;23.26;100.00;100932.56;2616655;54;20157;-64
2022/06/14 17:24:10;;;;;;;0.00;0.00;;;;;;;22.94;100.00;100943.19;2617116;54;20160;-63
2022/06/14 17:32:24;;;;;;;0.57;0.57;;;;;;;22.06;100.00;100950.81;2617095;54;20149;-63
2022/06/14 17:34:58;;;;;;;0.10;0.10;;;;;;;22.72;100.00;100961.38;2617063;54;20713;-63
2022/06/14 17:37:33;;;;;;;1.65;1.65;;;;;;;23.02;100.00;100959.06;2615940;54;20145;-63
2022/06/14 17:40:15;;;;;;;0.20;0.10;;;;;;;22.59;100.00;100962.81;2616577;54;20145;-63
2022/06/14 17:42:52;;;;;;;1.02;0.95;;;;;;;22.59;100.00;100971.56;2616108;54;20145;-63
2022/06/14 17:45:26;;;;;;;0.68;0.40;;;;;;;22.56;100.00;100973.72;2616882;54;20146;-64
2022/06/14 17:48:03;;;;;;;0.35;0.35;;;;;;;22.21;100.00;100972.16;2616481;54;20150;-64
2022/06/14 17:50:38;;;;;;;0.00;0.00;;;;;;;22.62;100.00;100986.28;2616537;39;20545;-64
2022/06/14 17:53:26;;;;;;;0.20;0.20;;;;;;;23.19;100.00;100980.03;2617651;39;20576;-64
2022/06/14 17:56:07;;;;;;;0.75;0.75;;;;;;;23.68;100.00;100986.13;2617156;54;20156;-64
2022/06/14 17:58:53;;;;;;;1.23;0.77;;;;;;;23.76;100.00;100993.22;2616450;39;20221;-64
2022/06/14 18:01:28;;;;;;;0.25;0.25;;;;;;;23.18;100.00;100993.47;2615240;39;20518;-64
2022/06/14 18:04:09;;;;;;;2.20;1.65;;;;;;;22.35;100.00;100993.50;2615202;54;20176;-64
2022/06/14 18:06:57;;;;;;;0.10;0.10;;;;;;;21.72;100.00;100993.03;2615387;54;20209;-64
2022/06/14 18:09:47;;;;;;;0.10;0.10;;;;;;;21.74;100.00;100999.00;2615490;47;20165;-64
2022/06/14 18:12:23;;;;;;;0.25;0.25;;;;;;;21.54;100.00;101010.78;2616291;39;20583;-64
2022/06/14 18:14:56;;;;;;;0.57;0.57;;;;;;;21.44;100.00;101015.31;2615602;54;20163;-64
2022/06/14 18:17:34;;;;;;;0.63;0.55;;;;;;;21.18;100.00;101011.81;2617078;54;20141;-64
2022/06/14 18:23:12;;;;;;;0.93;0.93;;;;;;;21.02;100.00;101020.41;2617281;54;20272;-64
2022/06/14 18:26:04;;;;;;;1.17;1.08;;;;;;;20.88;100.00;101024.41;2617682;39;20597;-64
2022/06/14 18:28:42;;;;;;;2.33;2.05;;;;;;;20.86;100.00;101028.97;2617235;54;20233;-64
2022/06/14 18:31:29;;;;;;;1.33;1.25;;;;;;;20.87;100.00;101030.63;2617259;54;20133;-63
2022/06/14 18:34:04;;;;;;;0.40;0.40;;;;;;;21.01;100.00;101040.69;2617510;54;20149;-63
2022/06/14 18:37:00;;;;;;;2.20;1.35;;;;;;;20.88;100.00;101045.50;2618501;54;20145;-63
2022/06/14 18:39:37;;;;;;;4.35;3.33;;;;;;;20.76;100.00;101065.16;2616461;54;20157;-63
2022/06/14 18:42:16;;;;;;;4.20;3.83;;;;;;;20.65;100.00;101081.19;2617365;54;20145;-63
2022/06/14 18:45:09;;;;;;;3.00;2.38;;;;;;;20.71;100.00;101085.84;2617094;54;20164;-62
2022/06/14 18:47:42;;;;;;;2.92;2.38;;;;;;;20.64;100.00;101076.88;2617105;54;20142;-63
2022/06/14 18:50:28;;;;;;;2.58;2.38;;;;;;;20.72;100.00;101079.63;2616832;54;20150;-63
2022/06/14 18:53:31;;;;;;;2.28;2.08;;;;;;;21.00;100.00;101083.88;2617068;54;20179;-63
2022/06/14 18:56:06;;;;;;;2.00;1.85;;;;;;;21.11;100.00;101074.88;2616983;54;20156;-63
2022/06/14 18:58:39;;;;;;;4.75;3.58;;;;;;;21.09;100.00;101081.31;2616768;54;20191;-63
2022/06/14 19:01:29;;;;;;;2.72;2.30;;;;;;;21.18;100.00;101091.00;2615583;54;20198;-63
2022/06/14 19:04:06;;;;;;;2.03;1.38;;;;;;;21.41;100.00;101092.19;2616311;54;20693;-63
2022/06/14 19:07:08;;;;;;;1.85;1.75;;;;;;;21.54;100.00;101091.81;2616247;54;20207;-63
2022/06/14 19:10:02;;;;;;;2.40;2.00;;;;;;;21.85;100.00;101103.59;2616463;54;20159;-63
2022/06/14 19:12:46;;;;;;;12.70;3.97;;;;;;;22.06;100.00;101109.38;2616275;54;20168;-63
2022/06/14 19:15:36;;;;;;;0.95;0.93;;;;;;;22.22;100.00;101108.63;2616415;54;20146;-63
2022/06/14 19:18:33;;;;;;;1.98;0.65;;;;;;;22.16;100.00;101123.28;2616161;54;20144;-63
2022/06/14 19:21:36;;;;;;;0.63;0.63;;;;;;;22.24;100.00;101119.84;2615003;54;20164;-63
2022/06/14 19:24:33;;;;;;;5.13;1.98;;;;;;;22.35;100.00;101114.28;2616382;54;20673;-63
2022/06/14 19:27:14;;;;;;;0.00;0.00;;;;;;;22.40;100.00;101110.19;2616668;54;20168;-63
2022/06/14 19:29:48;;;;;;;1.15;1.15;;;;;;;22.55;100.00;101112.25;2616331;54;20138;-63
2022/06/14 19:32:25;;;;;;;0.63;0.63;;;;;;;22.52;100.00;101108.09;2616525;54;20141;-63
2022/06/14 19:35:03;;;;;;;0.98;0.98;;;;;;;22.33;100.00;101105.69;2615829;54;20153;-64
2022/06/14 19:37:50;;;;;;;0.55;0.35;;;;;;;22.13;100.00;101106.91;2616914;54;20141;-63
2022/06/14 19:40:32;;;;;;;2.50;2.30;;;;;;;22.01;100.00;101097.59;2616744;54;20708;-64
2022/06/14 19:43:21;;;;;;;1.60;1.50;;;;;;;22.00;100.00;101090.66;2616711;54;20278;-64
2022/06/14 19:46:05;;;;;;;0.63;0.40;;;;;;;21.93;100.00;101091.28;2616483;39;20618;-64
2022/06/14 19:51:22;;;;;;;0.32;0.20;;;;;;;21.89;100.00;101084.63;2618306;54;20148;-64
2022/06/14 19:53:55;;;;;;;2.35;2.03;;;;;;;21.82;100.00;101078.31;2616342;54;20169;-64
2022/06/14 19:56:25;;;;;;;1.00;1.00;;;;;;;21.92;100.00;101062.38;2616417;54;20146;-63
2022/06/14 19:59:02;;;;;;;0.30;0.30;;;;;;;22.03;100.00;101058.63;2616280;54;20149;-64
2022/06/14 20:01:39;;;;;;;0.32;0.32;;;;;;;22.02;100.00;101057.81;2616791;54;20133;-63
2022/06/14 20:04:17;;;;;;;0.00;0.00;;;;;;;21.90;100.00;101054.59;2617058;39;20547;-63
2022/06/14 20:06:58;;;;;;;0.00;0.00;;;;;;;21.88;100.00;101055.69;2617288;54;20756;-64
2022/06/14 20:09:30;;;;;;;1.77;0.70;;;;;;;21.68;100.00;101051.63;2617732;39;20560;-63
2022/06/14 20:12:02;;;;;;;0.43;0.43;;;;;;;21.89;100.00;101045.00;2617272;54;20148;-64
2022/06/14 20:14:36;;;;;;;0.00;0.00;;;;;;;22.98;100.00;101050.38;2617282;54;20145;-64
2022/06/14 20:17:14;;;;;;;0.00;0.00;;;;;;;23.50;100.00;101041.16;2617378;54;20140;-64
2022/06/14 20:19:54;;;;;;;1.08;1.08;;;;;;;23.05;100.00;101032.84;2617067;54;20149;-64
2022/06/14 20:22:31;;;;;;;0.00;0.00;;;;;;;22.90;100.00;101030.03;2617266;47;20149;-64
2022/06/14 20:25:03;;;;;;;0.00;0.00;;;;;;;22.98;100.00;101030.03;2616948;54;20149;-64
2022/06/14 20:27:36;;;;;;;0.35;0.35;;;;;;;23.25;100.00;101034.16;2617218;54;20168;-64
2022/06/14 20:30:08;;;;;;;0.10;0.10;;;;;;;23.46;100.00;101028.41;2617248;54;20257;-64
2022/06/14 20:32:40;;;;;;;0.00;0.00;;;;;;;23.97;100.00;101027.09;2617937;54;20141;-64
2022/06/14 20:35:12;;;;;;;0.90;0.90;;;;;;;24.07;100.00;101017.94;2617639;54;20157;-64
2022/06/14 20:38:00;;;;;;;0.10;0.10;;;;;;;24.06;100.00;101005.72;2617237;54;20164;-64
2022/06/14 20:40:39;;;;;;;0.00;0.00;;;;;;;23.98;100.00;101010.22;2617166;54;20220;-64
2022/06/14 20:43:12;;;;;;;0.90;0.55;;;;;;;23.92;100.00;101002.94;2617276;54;20142;-64
2022/06/14 20:45:45;;;;;;;0.00;0.00;;;;;;;24.04;100.00;101012.16;2617578;39;20575;-64
2022/06/14 20:48:20;;;;;;;0.00;0.00;;;;;;;24.33;100.00;101017.72;2617137;54;20148;-64
2022/06/14 20:50:53;;;;;;;0.00;0.00;;;;;;;24.50;100.00;101019.28;2617259;54;20137;-64
2022/06/14 20:53:38;;;;;;;0.00;0.00;;;;;;;24.56;100.00;101018.56;2617339;54;20735;-64
2022/06/14 20:56:11;;;;;;;0.00;0.00;;;;;;;24.79;100.00;101017.78;2617227;51;20141;-64
2022/06/14 20:58:43;;;;;;;0.00;0.00;;;;;;;24.82;100.00;101022.72;2617394;39;20573;-64
2022/06/14 21:01:14;;;;;;;0.00;0.00;;;;;;;24.88;100.00;101030.84;2617117;54;20149;-64